sensor_id;sensor_type;location;lat;lon;timestamp;temperature;humidity
34766;DHT22;20984;43.508;1.504;2022-11-20T00:01:20;6.00;99.90
34766;DHT22;20984;43.508;1.504;2022-11-20T00:03:46;6.00;99.90
34766;DHT22;20984;43.508;1.504;2022-11-20T00:06:15;6.00;99.90
34766;DHT22;20984;43.508;1.504;2022-11-20T00:08:41;6.00;99.90
34766;DHT22;20984;43.508;1.504;2022-11-20T00:11:11;6.10;99.90
34766;DHT22;20984;43.508;1.504;2022-11-20T00:13:37;6.10;99.90
34766;DHT22;20984;43.508;1.504;2022-11-20T00:16:05;6.10;99.90
34766;DHT22;20984;43.508;1.504;2022-11-20T00:18:33;6.10;99.90
34766;DHT22;20984;43.508;1.504;2022-11-20T00:21:07;6.00;99.90
34766;DHT22;20984;43.508;1.504;2022-11-20T00:23:33;6.10;99.90
34766;DHT22;20984;43.508;1.504;2022-11-20T00:26:08;6.00;99.90
34766;DHT22;20984;43.508;1.504;2022-11-20T00:28:34;6.10;99.90
34766;DHT22;20984;43.508;1.504;2022-11-20T00:31:14;6.10;99.90
34766;DHT22;20984;43.508;1.504;2022-11-20T00:33:41;6.10;99.90
34766;DHT22;20984;43.508;1.504;2022-11-20T00:36:16;6.10;99.90
34766;DHT22;20984;43.508;1.504;2022-11-20T00:38:42;6.20;99.90
34766;DHT22;20984;43.508;1.504;2022-11-20T00:41:10;6.20;99.90
34766;DHT22;20984;43.508;1.504;2022-11-20T00:43:37;6.30;99.90
34766;DHT22;20984;43.508;1.504;2022-11-20T00:46:06;6.40;99.90
34766;DHT22;20984;43.508;1.504;2022-11-20T00:48:32;6.40;99.90
34766;DHT22;20984;43.508;1.504;2022-11-20T00:50:58;6.50;99.90
34766;DHT22;20984;43.508;1.504;2022-11-20T00:53:25;6.50;99.90
34766;DHT22;20984;43.508;1.504;2022-11-20T00:55:55;6.50;99.90
34766;DHT22;20984;43.508;1.504;2022-11-20T00:58:22;6.50;99.90
34766;DHT22;20984;43.508;1.504;2022-11-20T01:00:47;6.50;99.90
34766;DHT22;20984;43.508;1.504;2022-11-20T01:03:15;6.50;99.90
34766;DHT22;20984;43.508;1.504;2022-11-20T01:05:42;6.50;99.90
34766;DHT22;20984;43.508;1.504;2022-11-20T01:08:08;6.50;99.90
34766;DHT22;20984;43.508;1.504;2022-11-20T01:10:34;6.50;99.90
34766;DHT22;20984;43.508;1.504;2022-11-20T01:12:59;6.40;99.90
34766;DHT22;20984;43.508;1.504;2022-11-20T01:15:43;6.40;99.90
34766;DHT22;20984;43.508;1.504;2022-11-20T01:18:09;6.40;99.90
34766;DHT22;20984;43.508;1.504;2022-11-20T01:20:35;6.40;99.90
34766;DHT22;20984;43.508;1.504;2022-11-20T01:23:02;6.30;99.90
34766;DHT22;20984;43.508;1.504;2022-11-20T01:25:28;6.20;99.90
34766;DHT22;20984;43.508;1.504;2022-11-20T01:27:54;6.20;99.90
34766;DHT22;20984;43.508;1.504;2022-11-20T01:30:20;6.10;99.90
34766;DHT22;20984;43.508;1.504;2022-11-20T01:32:46;6.10;99.90
34766;DHT22;20984;43.508;1.504;2022-11-20T01:35:12;6.10;99.90
34766;DHT22;20984;43.508;1.504;2022-11-20T01:37:38;6.00;99.90
34766;DHT22;20984;43.508;1.504;2022-11-20T01:40:04;5.90;99.90
34766;DHT22;20984;43.508;1.504;2022-11-20T01:42:31;5.90;99.90
34766;DHT22;20984;43.508;1.504;2022-11-20T01:48:12;5.80;99.90
34766;DHT22;20984;43.508;1.504;2022-11-20T01:50:39;5.70;99.90
34766;DHT22;20984;43.508;1.504;2022-11-20T01:53:09;5.70;99.90
34766;DHT22;20984;43.508;1.504;2022-11-20T01:55:43;5.60;99.90
34766;DHT22;20984;43.508;1.504;2022-11-20T01:58:10;5.60;99.90
34766;DHT22;20984;43.508;1.504;2022-11-20T02:00:37;5.50;99.90
34766;DHT22;20984;43.508;1.504;2022-11-20T02:03:07;5.50;99.90
34766;DHT22;20984;43.508;1.504;2022-11-20T02:05:38;5.50;99.90
34766;DHT22;20984;43.508;1.504;2022-11-20T02:08:06;5.50;99.90
34766;DHT22;20984;43.508;1.504;2022-11-20T02:10:32;5.50;99.90
34766;DHT22;20984;43.508;1.504;2022-11-20T02:12:59;5.50;99.90
34766;DHT22;20984;43.508;1.504;2022-11-20T02:15:44;5.50;99.90
34766;DHT22;20984;43.508;1.504;2022-11-20T02:18:11;5.50;99.90
34766;DHT22;20984;43.508;1.504;2022-11-20T02:20:41;5.40;99.90
34766;DHT22;20984;43.508;1.504;2022-11-20T02:23:12;5.40;99.90
34766;DHT22;20984;43.508;1.504;2022-11-20T02:25:40;5.40;99.90
34766;DHT22;20984;43.508;1.504;2022-11-20T02:28:06;5.30;99.90
34766;DHT22;20984;43.508;1.504;2022-11-20T02:30:32;5.30;99.90
34766;DHT22;20984;43.508;1.504;2022-11-20T02:32:58;5.30;99.90
34766;DHT22;20984;43.508;1.504;2022-11-20T02:38:01;5.20;99.90
34766;DHT22;20984;43.508;1.504;2022-11-20T02:40:28;5.20;99.90
34766;DHT22;20984;43.508;1.504;2022-11-20T02:42:55;5.20;99.90
34766;DHT22;20984;43.508;1.504;2022-11-20T02:45:21;5.20;99.90
34766;DHT22;20984;43.508;1.504;2022-11-20T02:47:48;5.20;99.90
34766;DHT22;20984;43.508;1.504;2022-11-20T02:50:14;5.20;99.90
34766;DHT22;20984;43.508;1.504;2022-11-20T02:52:40;5.20;99.90
34766;DHT22;20984;43.508;1.504;2022-11-20T02:55:06;5.20;99.90
34766;DHT22;20984;43.508;1.504;2022-11-20T02:57:32;5.20;99.90
34766;DHT22;20984;43.508;1.504;2022-11-20T02:59:58;5.10;99.90
34766;DHT22;20984;43.508;1.504;2022-11-20T03:02:24;5.10;99.90
34766;DHT22;20984;43.508;1.504;2022-11-20T03:04:49;5.10;99.90
34766;DHT22;20984;43.508;1.504;2022-11-20T03:07:15;5.10;99.90
34766;DHT22;20984;43.508;1.504;2022-11-20T03:09:41;5.10;99.90
34766;DHT22;20984;43.508;1.504;2022-11-20T03:12:07;5.10;99.90
34766;DHT22;20984;43.508;1.504;2022-11-20T03:14:34;5.10;99.90
34766;DHT22;20984;43.508;1.504;2022-11-20T03:16:59;5.10;99.90
34766;DHT22;20984;43.508;1.504;2022-11-20T03:19:25;5.10;99.90
34766;DHT22;20984;43.508;1.504;2022-11-20T03:21:51;5.00;99.90
34766;DHT22;20984;43.508;1.504;2022-11-20T03:24:17;4.90;99.90
34766;DHT22;20984;43.508;1.504;2022-11-20T03:26:43;4.90;99.90
34766;DHT22;20984;43.508;1.504;2022-11-20T03:29:08;4.90;99.90
34766;DHT22;20984;43.508;1.504;2022-11-20T03:31:37;4.90;99.90
34766;DHT22;20984;43.508;1.504;2022-11-20T03:34:03;4.90;99.90
34766;DHT22;20984;43.508;1.504;2022-11-20T03:36:30;4.80;99.90
34766;DHT22;20984;43.508;1.504;2022-11-20T03:38:56;4.70;99.90
34766;DHT22;20984;43.508;1.504;2022-11-20T03:41:25;4.70;99.90
34766;DHT22;20984;43.508;1.504;2022-11-20T03:43:56;4.50;99.90
34766;DHT22;20984;43.508;1.504;2022-11-20T03:46:23;4.40;99.90
34766;DHT22;20984;43.508;1.504;2022-11-20T03:48:49;4.30;99.90
34766;DHT22;20984;43.508;1.504;2022-11-20T03:51:17;4.20;99.90
34766;DHT22;20984;43.508;1.504;2022-11-20T03:53:45;4.10;99.90
34766;DHT22;20984;43.508;1.504;2022-11-20T03:56:12;4.00;99.90
34766;DHT22;20984;43.508;1.504;2022-11-20T03:58:40;3.90;99.90
34766;DHT22;20984;43.508;1.504;2022-11-20T04:01:07;3.90;99.90
34766;DHT22;20984;43.508;1.504;2022-11-20T04:03:34;3.80;99.90
34766;DHT22;20984;43.508;1.504;2022-11-20T04:06:15;3.80;99.90
34766;DHT22;20984;43.508;1.504;2022-11-20T04:08:41;3.70;99.90
34766;DHT22;20984;43.508;1.504;2022-11-20T04:11:18;3.80;99.90
34766;DHT22;20984;43.508;1.504;2022-11-20T04:13:55;3.70;99.90
34766;DHT22;20984;43.508;1.504;2022-11-20T04:16:22;3.60;99.90
34766;DHT22;20984;43.508;1.504;2022-11-20T04:19:00;3.70;99.90
34766;DHT22;20984;43.508;1.504;2022-11-20T04:21:26;3.60;99.90
34766;DHT22;20984;43.508;1.504;2022-11-20T04:23:54;3.70;99.90
34766;DHT22;20984;43.508;1.504;2022-11-20T04:26:21;3.60;99.90
34766;DHT22;20984;43.508;1.504;2022-11-20T04:28:47;3.70;99.90
34766;DHT22;20984;43.508;1.504;2022-11-20T04:31:19;3.60;99.90
34766;DHT22;20984;43.508;1.504;2022-11-20T04:33:45;3.50;99.90
34766;DHT22;20984;43.508;1.504;2022-11-20T04:36:19;3.50;99.90
34766;DHT22;20984;43.508;1.504;2022-11-20T04:38:45;3.50;99.90
34766;DHT22;20984;43.508;1.504;2022-11-20T04:41:16;3.50;99.90
34766;DHT22;20984;43.508;1.504;2022-11-20T04:43:46;3.50;99.90
34766;DHT22;20984;43.508;1.504;2022-11-20T04:46:14;3.50;99.90
34766;DHT22;20984;43.508;1.504;2022-11-20T04:48:40;3.50;99.90
34766;DHT22;20984;43.508;1.504;2022-11-20T04:51:05;3.40;99.90
34766;DHT22;20984;43.508;1.504;2022-11-20T04:53:31;3.40;99.90
34766;DHT22;20984;43.508;1.504;2022-11-20T04:56:05;3.50;99.90
34766;DHT22;20984;43.508;1.504;2022-11-20T04:58:31;3.50;99.90
34766;DHT22;20984;43.508;1.504;2022-11-20T05:01:10;3.40;99.90
34766;DHT22;20984;43.508;1.504;2022-11-20T05:03:37;3.40;99.90
34766;DHT22;20984;43.508;1.504;2022-11-20T05:06:04;3.50;99.90
34766;DHT22;20984;43.508;1.504;2022-11-20T05:08:31;3.40;99.90
34766;DHT22;20984;43.508;1.504;2022-11-20T05:11:11;3.40;99.90
34766;DHT22;20984;43.508;1.504;2022-11-20T05:13:38;3.30;99.90
34766;DHT22;20984;43.508;1.504;2022-11-20T05:16:11;3.30;99.90
34766;DHT22;20984;43.508;1.504;2022-11-20T05:18:38;3.30;99.90
34766;DHT22;20984;43.508;1.504;2022-11-20T05:21:04;3.30;99.90
34766;DHT22;20984;43.508;1.504;2022-11-20T05:23:31;3.30;99.90
34766;DHT22;20984;43.508;1.504;2022-11-20T05:25:58;3.30;99.90
34766;DHT22;20984;43.508;1.504;2022-11-20T05:28:24;3.30;99.90
34766;DHT22;20984;43.508;1.504;2022-11-20T05:30:51;3.30;99.90
34766;DHT22;20984;43.508;1.504;2022-11-20T05:33:17;3.20;99.90
34766;DHT22;20984;43.508;1.504;2022-11-20T05:35:43;3.20;99.90
34766;DHT22;20984;43.508;1.504;2022-11-20T05:38:09;3.20;99.90
34766;DHT22;20984;43.508;1.504;2022-11-20T05:40:36;3.20;99.90
34766;DHT22;20984;43.508;1.504;2022-11-20T05:43:02;3.20;99.90
34766;DHT22;20984;43.508;1.504;2022-11-20T05:45:28;3.20;99.90
34766;DHT22;20984;43.508;1.504;2022-11-20T05:47:58;3.10;99.90
34766;DHT22;20984;43.508;1.504;2022-11-20T05:50:24;3.00;99.90
34766;DHT22;20984;43.508;1.504;2022-11-20T05:52:50;3.00;99.90
34766;DHT22;20984;43.508;1.504;2022-11-20T05:55:15;3.00;99.90
34766;DHT22;20984;43.508;1.504;2022-11-20T05:57:41;3.00;99.90
34766;DHT22;20984;43.508;1.504;2022-11-20T06:00:07;3.00;99.90
34766;DHT22;20984;43.508;1.504;2022-11-20T06:02:35;2.90;99.90
34766;DHT22;20984;43.508;1.504;2022-11-20T06:05:01;3.00;99.90
34766;DHT22;20984;43.508;1.504;2022-11-20T06:07:27;2.90;99.90
34766;DHT22;20984;43.508;1.504;2022-11-20T06:09:53;2.90;99.90
34766;DHT22;20984;43.508;1.504;2022-11-20T06:12:19;2.90;99.90
34766;DHT22;20984;43.508;1.504;2022-11-20T06:14:44;2.90;99.90
34766;DHT22;20984;43.508;1.504;2022-11-20T06:17:10;2.80;99.90
34766;DHT22;20984;43.508;1.504;2022-11-20T06:19:36;2.80;99.90
34766;DHT22;20984;43.508;1.504;2022-11-20T06:22:02;2.80;99.90
34766;DHT22;20984;43.508;1.504;2022-11-20T06:24:28;2.80;99.90
34766;DHT22;20984;43.508;1.504;2022-11-20T06:26:53;2.80;99.90
34766;DHT22;20984;43.508;1.504;2022-11-20T06:29:19;2.80;99.90
34766;DHT22;20984;43.508;1.504;2022-11-20T06:31:45;2.90;99.90
34766;DHT22;20984;43.508;1.504;2022-11-20T06:34:11;2.90;99.90
34766;DHT22;20984;43.508;1.504;2022-11-20T06:36:36;2.80;99.90
34766;DHT22;20984;43.508;1.504;2022-11-20T06:39:02;2.80;99.90
34766;DHT22;20984;43.508;1.504;2022-11-20T06:41:28;2.70;99.90
34766;DHT22;20984;43.508;1.504;2022-11-20T06:43:54;2.80;99.90
34766;DHT22;20984;43.508;1.504;2022-11-20T06:46:20;2.80;99.90
34766;DHT22;20984;43.508;1.504;2022-11-20T06:48:47;2.70;99.90
34766;DHT22;20984;43.508;1.504;2022-11-20T06:51:13;2.70;99.90
34766;DHT22;20984;43.508;1.504;2022-11-20T06:53:39;2.60;99.90
34766;DHT22;20984;43.508;1.504;2022-11-20T06:56:06;2.70;99.90
34766;DHT22;20984;43.508;1.504;2022-11-20T06:58:34;2.70;99.90
34766;DHT22;20984;43.508;1.504;2022-11-20T07:01:05;2.70;99.90
34766;DHT22;20984;43.508;1.504;2022-11-20T07:03:31;2.70;99.90
34766;DHT22;20984;43.508;1.504;2022-11-20T07:05:57;2.60;99.90
34766;DHT22;20984;43.508;1.504;2022-11-20T07:08:24;2.50;99.90
34766;DHT22;20984;43.508;1.504;2022-11-20T07:10:50;2.40;99.90
34766;DHT22;20984;43.508;1.504;2022-11-20T07:13:16;2.50;99.90
34766;DHT22;20984;43.508;1.504;2022-11-20T07:15:42;2.50;99.90
34766;DHT22;20984;43.508;1.504;2022-11-20T07:18:08;2.50;99.90
34766;DHT22;20984;43.508;1.504;2022-11-20T07:20:34;2.50;99.90
34766;DHT22;20984;43.508;1.504;2022-11-20T07:23:00;2.50;99.90
34766;DHT22;20984;43.508;1.504;2022-11-20T07:25:27;2.50;99.90
34766;DHT22;20984;43.508;1.504;2022-11-20T07:27:59;2.60;99.90
34766;DHT22;20984;43.508;1.504;2022-11-20T07:30:29;2.70;99.90
34766;DHT22;20984;43.508;1.504;2022-11-20T07:32:56;2.70;99.90
34766;DHT22;20984;43.508;1.504;2022-11-20T07:35:23;2.70;99.90
34766;DHT22;20984;43.508;1.504;2022-11-20T07:37:49;2.80;99.90
34766;DHT22;20984;43.508;1.504;2022-11-20T07:40:18;2.80;99.90
34766;DHT22;20984;43.508;1.504;2022-11-20T07:42:53;2.80;99.90
34766;DHT22;20984;43.508;1.504;2022-11-20T07:45:19;2.90;99.90
34766;DHT22;20984;43.508;1.504;2022-11-20T07:47:46;3.00;99.90
34766;DHT22;20984;43.508;1.504;2022-11-20T07:50:12;3.10;99.90
34766;DHT22;20984;43.508;1.504;2022-11-20T07:52:38;3.10;99.90
34766;DHT22;20984;43.508;1.504;2022-11-20T07:55:04;3.20;99.90
34766;DHT22;20984;43.508;1.504;2022-11-20T07:57:30;3.30;99.90
34766;DHT22;20984;43.508;1.504;2022-11-20T07:59:56;3.30;99.90
34766;DHT22;20984;43.508;1.504;2022-11-20T08:02:22;3.40;99.90
34766;DHT22;20984;43.508;1.504;2022-11-20T08:04:48;3.50;99.90
34766;DHT22;20984;43.508;1.504;2022-11-20T08:07:13;3.70;99.90
34766;DHT22;20984;43.508;1.504;2022-11-20T08:09:39;3.90;99.90
34766;DHT22;20984;43.508;1.504;2022-11-20T08:12:05;4.10;99.90
34766;DHT22;20984;43.508;1.504;2022-11-20T08:14:50;4.20;99.90
34766;DHT22;20984;43.508;1.504;2022-11-20T08:17:15;4.30;99.90
34766;DHT22;20984;43.508;1.504;2022-11-20T08:19:41;4.50;99.90
34766;DHT22;20984;43.508;1.504;2022-11-20T08:22:07;4.60;99.90
34766;DHT22;20984;43.508;1.504;2022-11-20T08:24:33;4.70;99.90
34766;DHT22;20984;43.508;1.504;2022-11-20T08:26:59;4.80;99.90
34766;DHT22;20984;43.508;1.504;2022-11-20T08:29:26;4.80;99.90
34766;DHT22;20984;43.508;1.504;2022-11-20T08:31:52;4.90;99.90
34766;DHT22;20984;43.508;1.504;2022-11-20T08:34:18;5.00;99.90
34766;DHT22;20984;43.508;1.504;2022-11-20T08:36:44;5.10;99.90
34766;DHT22;20984;43.508;1.504;2022-11-20T08:39:13;5.10;99.90
34766;DHT22;20984;43.508;1.504;2022-11-20T08:41:39;5.10;99.90
34766;DHT22;20984;43.508;1.504;2022-11-20T08:44:06;5.10;99.90
34766;DHT22;20984;43.508;1.504;2022-11-20T08:46:38;5.10;99.90
34766;DHT22;20984;43.508;1.504;2022-11-20T08:49:09;5.10;99.90
34766;DHT22;20984;43.508;1.504;2022-11-20T08:51:35;5.10;99.90
34766;DHT22;20984;43.508;1.504;2022-11-20T08:54:01;5.20;99.90
34766;DHT22;20984;43.508;1.504;2022-11-20T08:56:27;5.20;99.90
34766;DHT22;20984;43.508;1.504;2022-11-20T08:58:53;5.30;99.90
34766;DHT22;20984;43.508;1.504;2022-11-20T09:01:20;5.40;99.90
34766;DHT22;20984;43.508;1.504;2022-11-20T09:03:46;5.50;99.90
34766;DHT22;20984;43.508;1.504;2022-11-20T09:06:12;5.60;99.90
34766;DHT22;20984;43.508;1.504;2022-11-20T09:08:38;5.60;99.90
34766;DHT22;20984;43.508;1.504;2022-11-20T09:11:05;5.50;99.90
34766;DHT22;20984;43.508;1.504;2022-11-20T09:13:34;5.50;99.90
34766;DHT22;20984;43.508;1.504;2022-11-20T09:16:02;5.60;99.90
34766;DHT22;20984;43.508;1.504;2022-11-20T09:18:29;5.70;99.90
34766;DHT22;20984;43.508;1.504;2022-11-20T09:21:01;5.70;99.90
34766;DHT22;20984;43.508;1.504;2022-11-20T09:23:30;5.80;99.90
34766;DHT22;20984;43.508;1.504;2022-11-20T09:25:56;6.00;99.90
34766;DHT22;20984;43.508;1.504;2022-11-20T09:28:25;6.00;99.90
34766;DHT22;20984;43.508;1.504;2022-11-20T09:30:51;6.00;99.90
34766;DHT22;20984;43.508;1.504;2022-11-20T09:33:18;6.10;99.90
34766;DHT22;20984;43.508;1.504;2022-11-20T09:35:44;6.20;99.90
34766;DHT22;20984;43.508;1.504;2022-11-20T09:38:10;6.30;99.90
34766;DHT22;20984;43.508;1.504;2022-11-20T09:40:43;6.30;99.90
34766;DHT22;20984;43.508;1.504;2022-11-20T09:46:29;6.40;99.90
34766;DHT22;20984;43.508;1.504;2022-11-20T09:54:18;6.50;99.90
34766;DHT22;20984;43.508;1.504;2022-11-20T09:56:53;6.50;99.90
34766;DHT22;20984;43.508;1.504;2022-11-20T09:59:29;6.60;99.90
34766;DHT22;20984;43.508;1.504;2022-11-20T10:01:59;6.60;99.90
34766;DHT22;20984;43.508;1.504;2022-11-20T10:04:26;6.60;99.90
34766;DHT22;20984;43.508;1.504;2022-11-20T10:09:31;6.80;99.90
34766;DHT22;20984;43.508;1.504;2022-11-20T10:25:19;7.10;99.90
34766;DHT22;20984;43.508;1.504;2022-11-20T10:28:15;7.10;99.90
34766;DHT22;20984;43.508;1.504;2022-11-20T10:30:45;7.20;99.90
34766;DHT22;20984;43.508;1.504;2022-11-20T10:33:23;7.30;99.90
34766;DHT22;20984;43.508;1.504;2022-11-20T10:36:17;7.30;99.90
34766;DHT22;20984;43.508;1.504;2022-11-20T10:39:18;7.40;99.90
34766;DHT22;20984;43.508;1.504;2022-11-20T10:41:50;7.40;99.90
34766;DHT22;20984;43.508;1.504;2022-11-20T10:44:20;7.50;99.90
34766;DHT22;20984;43.508;1.504;2022-11-20T10:47:05;7.50;99.90
34766;DHT22;20984;43.508;1.504;2022-11-20T10:49:35;7.60;99.90
34766;DHT22;20984;43.508;1.504;2022-11-20T10:52:40;7.60;99.90
34766;DHT22;20984;43.508;1.504;2022-11-20T10:58:28;7.80;99.90
34766;DHT22;20984;43.508;1.504;2022-11-20T11:01:18;7.90;99.90
34766;DHT22;20984;43.508;1.504;2022-11-20T11:03:47;7.90;99.90
34766;DHT22;20984;43.508;1.504;2022-11-20T11:06:37;8.00;99.90
34766;DHT22;20984;43.508;1.504;2022-11-20T11:09:10;8.20;99.90
34766;DHT22;20984;43.508;1.504;2022-11-20T11:11:38;8.20;99.90
34766;DHT22;20984;43.508;1.504;2022-11-20T11:16:34;8.30;99.90
34766;DHT22;20984;43.508;1.504;2022-11-20T11:19:11;8.40;99.90
34766;DHT22;20984;43.508;1.504;2022-11-20T11:21:37;8.50;99.90
34766;DHT22;20984;43.508;1.504;2022-11-20T11:24:22;8.60;99.90
34766;DHT22;20984;43.508;1.504;2022-11-20T11:26:59;8.70;99.90
34766;DHT22;20984;43.508;1.504;2022-11-20T11:29:30;8.80;99.90
34766;DHT22;20984;43.508;1.504;2022-11-20T11:32:17;9.00;99.90
34766;DHT22;20984;43.508;1.504;2022-11-20T11:34:44;9.20;99.90
34766;DHT22;20984;43.508;1.504;2022-11-20T11:37:17;9.30;99.90
34766;DHT22;20984;43.508;1.504;2022-11-20T11:39:43;9.50;99.90
34766;DHT22;20984;43.508;1.504;2022-11-20T11:42:17;9.60;99.90
34766;DHT22;20984;43.508;1.504;2022-11-20T11:44:45;9.80;99.90
34766;DHT22;20984;43.508;1.504;2022-11-20T11:47:37;9.80;99.90
34766;DHT22;20984;43.508;1.504;2022-11-20T11:56:15;10.20;99.90
34766;DHT22;20984;43.508;1.504;2022-11-20T12:04:53;10.80;99.90
34766;DHT22;20984;43.508;1.504;2022-11-20T12:09:52;10.90;99.90
34766;DHT22;20984;43.508;1.504;2022-11-20T12:12:24;11.10;99.90
34766;DHT22;20984;43.508;1.504;2022-11-20T12:14:54;11.10;99.90
34766;DHT22;20984;43.508;1.504;2022-11-20T12:17:21;11.30;99.90
34766;DHT22;20984;43.508;1.504;2022-11-20T12:19:47;11.30;99.90
34766;DHT22;20984;43.508;1.504;2022-11-20T12:30:33;12.10;99.90
34766;DHT22;20984;43.508;1.504;2022-11-20T12:33:12;12.00;99.90
34766;DHT22;20984;43.508;1.504;2022-11-20T12:47:51;12.80;99.90
34766;DHT22;20984;43.508;1.504;2022-11-20T12:50:28;12.70;99.90
34766;DHT22;20984;43.508;1.504;2022-11-20T12:53:04;12.80;99.90
34766;DHT22;20984;43.508;1.504;2022-11-20T12:58:25;12.80;99.90
34766;DHT22;20984;43.508;1.504;2022-11-20T13:01:25;12.70;99.90
34766;DHT22;20984;43.508;1.504;2022-11-20T13:07:11;12.00;99.90
34766;DHT22;20984;43.508;1.504;2022-11-20T13:09:43;11.60;99.90
34766;DHT22;20984;43.508;1.504;2022-11-20T13:20:16;10.30;99.90
34766;DHT22;20984;43.508;1.504;2022-11-20T13:22:51;10.20;99.90
34766;DHT22;20984;43.508;1.504;2022-11-20T13:25:28;10.00;99.90
34766;DHT22;20984;43.508;1.504;2022-11-20T13:27:57;10.00;99.90
34766;DHT22;20984;43.508;1.504;2022-11-20T13:30:27;10.00;99.90
34766;DHT22;20984;43.508;1.504;2022-11-20T13:35:28;10.10;99.90
34766;DHT22;20984;43.508;1.504;2022-11-20T13:38:13;10.10;99.90
34766;DHT22;20984;43.508;1.504;2022-11-20T13:40:52;10.10;99.90
34766;DHT22;20984;43.508;1.504;2022-11-20T13:43:38;10.10;99.90
34766;DHT22;20984;43.508;1.504;2022-11-20T13:46:08;10.10;99.90
34766;DHT22;20984;43.508;1.504;2022-11-20T13:48:42;10.10;99.90
34766;DHT22;20984;43.508;1.504;2022-11-20T14:00:02;10.30;99.90
34766;DHT22;20984;43.508;1.504;2022-11-20T14:02:29;10.30;99.90
34766;DHT22;20984;43.508;1.504;2022-11-20T14:04:58;10.40;99.90
34766;DHT22;20984;43.508;1.504;2022-11-20T14:07:31;10.60;99.90
34766;DHT22;20984;43.508;1.504;2022-11-20T14:09:58;10.60;99.90
34766;DHT22;20984;43.508;1.504;2022-11-20T14:12:32;10.70;99.90
34766;DHT22;20984;43.508;1.504;2022-11-20T14:14:58;10.80;99.90
34766;DHT22;20984;43.508;1.504;2022-11-20T14:17:35;10.80;99.90
34766;DHT22;20984;43.508;1.504;2022-11-20T14:20:04;10.90;99.90
34766;DHT22;20984;43.508;1.504;2022-11-20T14:22:31;11.00;99.90
34766;DHT22;20984;43.508;1.504;2022-11-20T14:27:38;11.10;99.90
34766;DHT22;20984;43.508;1.504;2022-11-20T14:30:06;11.30;99.90
34766;DHT22;20984;43.508;1.504;2022-11-20T14:32:38;11.40;99.90
34766;DHT22;20984;43.508;1.504;2022-11-20T14:35:09;11.50;99.90
34766;DHT22;20984;43.508;1.504;2022-11-20T14:37:39;11.60;99.90
34766;DHT22;20984;43.508;1.504;2022-11-20T14:42:52;11.70;99.90
34766;DHT22;20984;43.508;1.504;2022-11-20T14:45:19;11.70;99.90
34766;DHT22;20984;43.508;1.504;2022-11-20T14:47:45;11.80;99.90
34766;DHT22;20984;43.508;1.504;2022-11-20T14:50:19;11.80;99.90
34766;DHT22;20984;43.508;1.504;2022-11-20T14:52:59;11.80;99.90
34766;DHT22;20984;43.508;1.504;2022-11-20T14:57:56;12.00;99.90
34766;DHT22;20984;43.508;1.504;2022-11-20T15:00:23;12.00;99.90
34766;DHT22;20984;43.508;1.504;2022-11-20T15:02:50;12.00;99.90
34766;DHT22;20984;43.508;1.504;2022-11-20T15:05:19;12.10;99.90
34766;DHT22;20984;43.508;1.504;2022-11-20T15:07:49;12.10;99.90
34766;DHT22;20984;43.508;1.504;2022-11-20T15:10:27;12.10;99.90
34766;DHT22;20984;43.508;1.504;2022-11-20T15:13:00;12.20;99.90
34766;DHT22;20984;43.508;1.504;2022-11-20T15:15:54;12.20;99.90
34766;DHT22;20984;43.508;1.504;2022-11-20T15:18:40;12.20;99.90
34766;DHT22;20984;43.508;1.504;2022-11-20T15:21:14;12.20;99.90
34766;DHT22;20984;43.508;1.504;2022-11-20T15:23:41;12.20;99.90
34766;DHT22;20984;43.508;1.504;2022-11-20T15:26:13;12.30;99.90
34766;DHT22;20984;43.508;1.504;2022-11-20T15:28:44;12.30;99.90
34766;DHT22;20984;43.508;1.504;2022-11-20T15:31:14;12.30;99.90
34766;DHT22;20984;43.508;1.504;2022-11-20T15:33:40;12.40;99.90
34766;DHT22;20984;43.508;1.504;2022-11-20T15:36:06;12.40;99.90
34766;DHT22;20984;43.508;1.504;2022-11-20T15:38:32;12.40;99.90
34766;DHT22;20984;43.508;1.504;2022-11-20T15:40:58;12.30;99.90
34766;DHT22;20984;43.508;1.504;2022-11-20T15:43:24;12.30;99.90
34766;DHT22;20984;43.508;1.504;2022-11-20T15:45:53;12.30;99.90
34766;DHT22;20984;43.508;1.504;2022-11-20T15:48:24;12.20;99.90
34766;DHT22;20984;43.508;1.504;2022-11-20T15:53:36;12.20;99.90
34766;DHT22;20984;43.508;1.504;2022-11-20T15:56:02;12.20;99.90
34766;DHT22;20984;43.508;1.504;2022-11-20T15:58:28;12.20;99.90
34766;DHT22;20984;43.508;1.504;2022-11-20T16:00:54;12.10;99.90
34766;DHT22;20984;43.508;1.504;2022-11-20T16:03:20;12.10;99.90
34766;DHT22;20984;43.508;1.504;2022-11-20T16:05:46;12.10;99.90
34766;DHT22;20984;43.508;1.504;2022-11-20T16:08:12;12.10;99.90
34766;DHT22;20984;43.508;1.504;2022-11-20T16:10:38;12.10;99.90
34766;DHT22;20984;43.508;1.504;2022-11-20T16:13:11;12.10;99.90
34766;DHT22;20984;43.508;1.504;2022-11-20T16:15:58;12.10;99.90
34766;DHT22;20984;43.508;1.504;2022-11-20T16:18:24;12.10;99.90
34766;DHT22;20984;43.508;1.504;2022-11-20T16:20:52;12.00;99.90
34766;DHT22;20984;43.508;1.504;2022-11-20T16:23:18;12.00;99.90
34766;DHT22;20984;43.508;1.504;2022-11-20T16:25:46;12.00;99.90
34766;DHT22;20984;43.508;1.504;2022-11-20T16:28:12;11.90;99.90
34766;DHT22;20984;43.508;1.504;2022-11-20T16:30:38;11.90;99.90
34766;DHT22;20984;43.508;1.504;2022-11-20T16:33:10;11.90;99.90
34766;DHT22;20984;43.508;1.504;2022-11-20T16:35:37;11.90;99.90
34766;DHT22;20984;43.508;1.504;2022-11-20T16:38:03;11.90;99.90
34766;DHT22;20984;43.508;1.504;2022-11-20T16:40:29;11.90;99.90
34766;DHT22;20984;43.508;1.504;2022-11-20T16:42:55;12.00;99.90
34766;DHT22;20984;43.508;1.504;2022-11-20T16:45:21;11.90;99.90
34766;DHT22;20984;43.508;1.504;2022-11-20T16:47:46;12.00;99.90
34766;DHT22;20984;43.508;1.504;2022-11-20T16:50:12;11.90;99.90
34766;DHT22;20984;43.508;1.504;2022-11-20T16:52:38;12.00;99.90
34766;DHT22;20984;43.508;1.504;2022-11-20T16:55:04;11.90;99.90
34766;DHT22;20984;43.508;1.504;2022-11-20T16:57:31;11.90;99.90
34766;DHT22;20984;43.508;1.504;2022-11-20T16:59:59;12.00;99.90
34766;DHT22;20984;43.508;1.504;2022-11-20T17:02:25;12.00;99.90
34766;DHT22;20984;43.508;1.504;2022-11-20T17:04:51;12.00;99.90
34766;DHT22;20984;43.508;1.504;2022-11-20T17:07:18;12.00;99.90
34766;DHT22;20984;43.508;1.504;2022-11-20T17:09:44;11.90;99.90
34766;DHT22;20984;43.508;1.504;2022-11-20T17:12:10;11.90;99.90
34766;DHT22;20984;43.508;1.504;2022-11-20T17:14:35;11.90;99.90
34766;DHT22;20984;43.508;1.504;2022-11-20T17:17:02;11.90;99.90
34766;DHT22;20984;43.508;1.504;2022-11-20T17:19:28;11.90;99.90
34766;DHT22;20984;43.508;1.504;2022-11-20T17:21:53;11.90;99.90
34766;DHT22;20984;43.508;1.504;2022-11-20T17:24:19;11.90;99.90
34766;DHT22;20984;43.508;1.504;2022-11-20T17:26:47;11.80;99.90
34766;DHT22;20984;43.508;1.504;2022-11-20T17:29:16;11.80;99.90
34766;DHT22;20984;43.508;1.504;2022-11-20T17:31:43;11.80;99.90
34766;DHT22;20984;43.508;1.504;2022-11-20T17:34:11;11.80;99.90
34766;DHT22;20984;43.508;1.504;2022-11-20T17:36:37;11.80;99.90
34766;DHT22;20984;43.508;1.504;2022-11-20T17:39:18;11.80;99.90
34766;DHT22;20984;43.508;1.504;2022-11-20T17:41:44;11.80;99.90